createdAt,value
2019-02-24T14:58:01.588Z,4.67
2019-02-24T15:00:31.961Z,5.90
2019-02-24T15:03:02.349Z,5.37
2019-02-24T15:05:33.029Z,4.10
2019-02-24T15:08:03.339Z,5.23
2019-02-24T15:10:32.732Z,4.20
2019-02-24T15:13:02.217Z,4.63
2019-02-24T15:15:33.389Z,4.60
2019-02-24T15:18:02.850Z,4.67
2019-02-24T15:20:32.526Z,4.70
2019-02-24T15:23:01.979Z,4.47
2019-02-24T15:25:31.407Z,5.23
2019-02-24T15:28:00.851Z,4.10
2019-02-24T15:30:31.873Z,5.43
2019-02-24T15:33:01.336Z,4.70
2019-02-24T15:35:30.828Z,5.17
2019-02-24T15:38:00.236Z,4.87
2019-02-24T15:40:29.754Z,5.40
2019-02-24T15:42:59.186Z,4.60
2019-02-24T15:45:28.776Z,4.47
2019-02-24T15:47:58.720Z,4.57
2019-02-24T15:50:28.167Z,4.30
2019-02-24T15:52:57.585Z,4.50
2019-02-24T15:55:27.004Z,4.27
2019-02-24T15:57:56.427Z,3.87
2019-02-24T16:00:26.109Z,4.70
2019-02-24T16:03:01.501Z,4.67
2019-02-24T16:05:26.629Z,4.77
2019-02-24T16:07:56.104Z,3.77
2019-02-24T16:10:25.534Z,4.90
2019-02-24T16:12:55.005Z,4.03
2019-02-24T16:15:24.741Z,3.70
2019-02-24T16:17:54.319Z,3.57
2019-02-24T16:20:25.181Z,3.47
2019-02-24T16:22:54.553Z,3.43
2019-02-24T16:25:23.977Z,4.13
2019-02-24T16:27:53.775Z,4.17
2019-02-24T16:30:23.216Z,4.67
2019-02-24T16:32:52.641Z,4.73
2019-02-24T16:35:22.938Z,4.87
2019-02-24T16:37:53.066Z,4.07
2019-02-24T16:40:23.258Z,5.20
2019-02-24T16:42:53.309Z,4.37
2019-02-24T16:45:22.776Z,3.77
2019-02-24T16:47:52.290Z,3.80
2019-02-24T16:50:21.894Z,3.23
2019-02-24T16:52:52.620Z,3.80
2019-02-24T16:55:22.240Z,4.63
2019-02-24T16:57:52.021Z,3.43
2019-02-24T17:00:21.530Z,3.53
2019-02-24T17:02:50.923Z,3.83
2019-02-24T17:05:20.806Z,3.47
2019-02-24T17:07:50.302Z,3.60
2019-02-24T17:10:20.223Z,3.90
2019-02-24T17:12:49.608Z,5.13
2019-02-24T17:15:18.983Z,3.90
2019-02-24T17:17:48.369Z,3.90
2019-02-24T17:20:18.544Z,5.30
2019-02-24T17:22:47.948Z,8.10
2019-02-24T17:25:17.459Z,5.03
2019-02-24T17:27:46.870Z,4.60
2019-02-24T17:30:16.587Z,4.03
2019-02-24T17:32:46.024Z,4.50
2019-02-24T17:35:15.936Z,4.83
2019-02-24T17:37:45.351Z,3.27
2019-02-24T17:40:15.018Z,3.10
2019-02-24T17:42:44.402Z,3.83
2019-02-24T17:45:14.116Z,3.70
2019-02-24T17:47:43.612Z,3.20
2019-02-24T17:50:13.648Z,3.90
2019-02-24T17:52:43.082Z,4.27
2019-02-24T17:55:13.340Z,5.07
2019-02-24T17:57:42.926Z,7.40
2019-02-24T18:00:26.951Z,4.47
2019-02-24T18:02:56.374Z,5.17
2019-02-24T18:05:25.801Z,6.27
2019-02-24T18:07:55.425Z,5.10
2019-02-24T18:10:24.797Z,4.33
2019-02-24T18:12:54.249Z,4.80
2019-02-24T18:15:23.619Z,4.73
2019-02-24T18:17:53.010Z,4.90
2019-02-24T18:20:22.435Z,5.67
2019-02-24T18:22:51.942Z,4.00
2019-02-24T18:25:21.314Z,4.63
2019-02-24T18:27:50.684Z,4.30
2019-02-24T18:30:22.090Z,3.93
2019-02-24T18:32:51.688Z,4.20
2019-02-24T18:35:21.139Z,3.77
2019-02-24T18:37:50.543Z,3.30
2019-02-24T18:40:20.043Z,4.17
2019-02-24T18:42:49.651Z,3.50
2019-02-24T18:45:19.028Z,4.30
2019-02-24T18:47:49.858Z,4.63
2019-02-24T18:50:19.310Z,4.47
2019-02-24T18:52:49.046Z,6.47
2019-02-24T18:55:18.729Z,4.70
2019-02-24T18:57:48.139Z,3.67
2019-02-24T19:00:18.579Z,4.27
2019-02-24T19:02:47.956Z,5.30
2019-02-24T19:05:17.365Z,4.80
2019-02-24T19:07:46.843Z,4.77
2019-02-24T19:10:16.625Z,5.27
2019-02-24T19:12:46.218Z,5.43
2019-02-24T19:15:17.039Z,5.17
2019-02-24T19:17:46.475Z,3.67
2019-02-24T19:20:17.627Z,4.70
2019-02-24T19:22:47.057Z,5.30
2019-02-24T19:25:16.776Z,4.93
2019-02-24T19:27:46.221Z,4.50
2019-02-24T19:30:16.478Z,5.93
2019-02-24T19:32:46.340Z,4.23
2019-02-24T19:35:16.320Z,5.13
2019-02-24T19:37:45.974Z,4.47
2019-02-24T19:40:16.756Z,4.00
2019-02-24T19:42:46.265Z,5.07
2019-02-24T19:45:17.012Z,4.80
2019-02-24T19:47:46.455Z,4.60
2019-02-24T19:50:17.247Z,5.30
2019-02-24T19:52:46.741Z,4.90
2019-02-24T19:55:16.196Z,4.97
2019-02-24T19:57:45.588Z,4.77
2019-02-24T20:00:18.318Z,4.30
2019-02-24T20:02:47.791Z,4.70
2019-02-24T20:05:17.317Z,5.27
2019-02-24T20:07:46.860Z,5.23
2019-02-24T20:10:18.382Z,5.27
2019-02-24T20:12:47.844Z,4.90
2019-02-24T20:15:17.329Z,5.00
2019-02-24T20:17:46.744Z,4.87
2019-02-24T20:20:16.552Z,5.27
2019-02-24T20:22:46.037Z,5.40
2019-02-24T20:25:15.466Z,4.40
2019-02-24T20:27:44.853Z,4.80
2019-02-24T20:30:16.932Z,5.13
2019-02-24T20:32:46.367Z,4.43
2019-02-24T20:35:15.786Z,5.10
2019-02-24T20:37:45.187Z,4.67
2019-02-24T20:40:14.586Z,4.90
2019-02-24T20:42:44.007Z,5.50
2019-02-24T20:45:14.943Z,5.10
2019-02-24T20:47:44.479Z,4.20
2019-02-24T20:50:15.300Z,4.43
2019-02-24T20:52:44.708Z,4.87
2019-02-24T20:55:14.234Z,4.83
2019-02-24T20:57:43.631Z,4.83
2019-02-24T21:00:34.701Z,5.43
2019-02-24T21:03:04.143Z,4.57
2019-02-24T21:05:33.692Z,5.53
2019-02-24T21:08:03.102Z,5.17
2019-02-24T21:10:32.526Z,5.90
2019-02-24T21:13:01.913Z,5.63
2019-02-24T21:15:31.313Z,6.37
2019-02-24T21:18:00.730Z,5.50
2019-02-24T21:20:30.132Z,5.50
2019-02-24T21:22:59.587Z,7.40
2019-02-24T21:25:28.987Z,11.93
2019-02-24T21:27:58.380Z,9.60
2019-02-24T21:30:27.799Z,8.47
2019-02-24T21:32:57.192Z,10.07
2019-02-24T21:35:26.617Z,8.97
2019-02-24T21:37:56.006Z,8.37
2019-02-24T21:40:25.539Z,8.47
2019-02-24T21:42:54.944Z,7.67
2019-02-24T21:45:24.716Z,8.13
2019-02-24T21:47:54.105Z,6.47
2019-02-24T21:50:23.486Z,6.17
2019-02-24T21:52:52.980Z,5.97
2019-02-24T21:55:22.391Z,5.63
2019-02-24T21:57:51.818Z,5.40
2019-02-24T22:00:22.157Z,4.67
2019-02-24T22:02:51.528Z,5.30
2019-02-24T22:05:21.019Z,5.00
2019-02-24T22:07:50.402Z,5.30
2019-02-24T22:10:19.802Z,7.07
2019-02-24T22:12:49.190Z,4.83
2019-02-24T22:15:19.119Z,5.47
2019-02-24T22:17:48.524Z,5.40
2019-02-24T22:20:17.924Z,6.20
2019-02-24T22:22:47.343Z,6.30
2019-02-24T22:25:16.754Z,5.50
2019-02-24T22:27:46.327Z,5.97
2019-02-24T22:30:17.047Z,5.27
2019-02-24T22:32:46.534Z,6.17
2019-02-24T22:35:16.079Z,4.85
2019-02-24T22:37:45.673Z,4.45
2019-02-24T22:40:16.705Z,5.63
2019-02-24T22:42:46.421Z,5.10
2019-02-24T22:45:17.072Z,5.53
2019-02-24T22:47:46.867Z,4.90
2019-02-24T22:50:16.795Z,5.62
2019-02-24T22:52:46.582Z,7.28
2019-02-24T22:55:16.379Z,6.85
2019-02-24T22:57:45.860Z,7.40
2019-02-24T23:00:58.663Z,7.17
2019-02-24T23:03:30.890Z,6.65
2019-02-24T23:06:00.399Z,6.78
2019-02-24T23:08:29.851Z,6.40
2019-02-24T23:10:59.300Z,7.05
2019-02-24T23:13:28.896Z,6.78
2019-02-24T23:15:58.421Z,7.62
2019-02-24T23:18:27.907Z,7.28
2019-02-24T23:20:57.391Z,5.35
2019-02-24T23:23:26.795Z,7.90
2019-02-24T23:25:56.282Z,6.95
2019-02-24T23:28:25.755Z,5.72
2019-02-24T23:30:55.311Z,5.15
2019-02-24T23:33:24.811Z,5.17
2019-02-24T23:35:54.304Z,4.85
2019-02-24T23:38:23.874Z,4.17
2019-02-24T23:40:53.335Z,4.12
2019-02-24T23:43:22.853Z,4.95
2019-02-24T23:45:52.356Z,4.75
2019-02-24T23:48:21.841Z,5.33
2019-02-24T23:50:51.335Z,5.72
2019-02-24T23:53:20.803Z,4.22
2019-02-24T23:55:50.274Z,4.50
2019-02-24T23:58:19.766Z,5.33
